createdAt,value
2023-04-14T00:00:06.441Z,27.00
2023-04-14T00:03:03.681Z,27.10
2023-04-14T00:05:32.464Z,26.90
2023-04-14T00:08:00.743Z,27.00
2023-04-14T00:10:28.366Z,26.70
2023-04-14T00:12:56.375Z,28.10
2023-04-14T00:15:24.047Z,28.50
2023-04-14T00:17:52.571Z,26.90
2023-04-14T00:20:20.312Z,27.90
2023-04-14T00:22:48.043Z,28.70
2023-04-14T00:25:15.936Z,30.70
2023-04-14T00:27:43.573Z,29.60
2023-04-14T00:30:11.479Z,28.40
2023-04-14T00:32:39.895Z,27.90
2023-04-14T00:35:08.226Z,29.60
2023-04-14T00:37:36.010Z,28.30
2023-04-14T00:40:03.825Z,30.00
2023-04-14T00:42:31.986Z,30.90
2023-04-14T00:45:00.639Z,30.70
2023-04-14T00:47:28.544Z,32.60
2023-04-14T00:49:56.490Z,30.90
2023-04-14T00:52:25.417Z,30.70
2023-04-14T00:54:53.110Z,31.00
2023-04-14T00:57:20.745Z,30.60
2023-04-14T00:59:48.381Z,29.70
2023-04-14T01:02:18.280Z,32.00
2023-04-14T01:04:53.600Z,33.20
2023-04-14T01:07:23.354Z,31.30
2023-04-14T01:09:52.538Z,31.60
2023-04-14T01:12:57.461Z,32.10
2023-04-14T01:15:39.218Z,32.20
2023-04-14T01:18:11.208Z,33.10
2023-04-14T01:20:44.265Z,32.40
2023-04-14T01:23:32.329Z,32.70
2023-04-14T01:26:21.664Z,33.00
2023-04-14T01:29:26.941Z,35.40
2023-04-14T01:32:06.380Z,33.30
2023-04-14T01:34:59.751Z,28.30
2023-04-14T01:37:34.021Z,28.20
2023-04-14T01:40:19.666Z,28.50
2023-04-14T01:42:57.744Z,27.60
2023-04-14T01:45:28.197Z,29.00
2023-04-14T01:47:55.967Z,28.00
2023-04-14T01:50:26.416Z,29.70
2023-04-14T01:52:54.939Z,28.10
2023-04-14T01:55:24.167Z,28.80
2023-04-14T01:57:52.327Z,29.50
2023-04-14T02:00:21.401Z,29.40
2023-04-14T02:02:50.671Z,35.10
2023-04-14T02:05:19.803Z,31.50
2023-04-14T02:07:48.520Z,34.80
2023-04-14T02:10:19.478Z,33.40
2023-04-14T02:12:48.341Z,33.00
2023-04-14T02:15:20.314Z,32.90
2023-04-14T02:17:49.638Z,31.80
2023-04-14T02:20:20.340Z,31.70
2023-04-14T02:22:48.320Z,30.70
2023-04-14T02:25:16.082Z,32.40
2023-04-14T02:27:49.917Z,33.20
2023-04-14T02:30:21.877Z,32.70
2023-04-14T02:32:54.398Z,31.90
2023-04-14T02:35:26.899Z,32.30
2023-04-14T02:38:24.332Z,32.50
2023-04-14T02:40:52.006Z,31.80
2023-04-14T02:43:31.722Z,30.90
2023-04-14T02:46:01.640Z,29.60
2023-04-14T02:48:31.258Z,28.00
2023-04-14T02:51:01.698Z,29.20
2023-04-14T02:53:30.190Z,28.60
2023-04-14T02:56:09.623Z,28.80
2023-04-14T02:58:39.645Z,29.50
2023-04-14T03:01:07.963Z,30.10
2023-04-14T03:03:37.691Z,28.80
2023-04-14T03:06:07.039Z,29.00
2023-04-14T03:08:35.513Z,29.50
2023-04-14T03:11:04.842Z,28.90
2023-04-14T03:13:34.639Z,30.80
2023-04-14T03:16:04.276Z,29.90
2023-04-14T03:18:32.741Z,30.00
2023-04-14T03:21:02.462Z,27.50
2023-04-14T03:23:31.308Z,26.00
2023-04-14T03:26:03.303Z,25.90
2023-04-14T03:28:34.959Z,24.10
2023-04-14T03:31:05.217Z,24.40
2023-04-14T03:33:39.836Z,23.70
2023-04-14T03:36:10.271Z,22.70
2023-04-14T03:38:38.397Z,22.10
2023-04-14T03:41:07.533Z,21.60
2023-04-14T03:43:35.722Z,21.50
2023-04-14T03:46:07.773Z,21.60
2023-04-14T03:48:42.277Z,21.40
2023-04-14T03:51:13.356Z,21.00
2023-04-14T03:53:42.613Z,19.90
2023-04-14T03:56:13.348Z,20.30
2023-04-14T03:58:46.480Z,21.30
2023-04-14T04:01:14.826Z,20.20
2023-04-14T04:03:43.477Z,20.60
2023-04-14T04:06:11.852Z,20.60
2023-04-14T04:08:40.447Z,20.50
2023-04-14T04:11:11.427Z,20.20
2023-04-14T04:13:41.894Z,20.40
2023-04-14T04:16:10.687Z,21.10
2023-04-14T04:18:39.642Z,23.20
2023-04-14T04:21:10.282Z,22.40
2023-04-14T04:23:40.306Z,21.50
2023-04-14T04:26:08.575Z,21.00
2023-04-14T04:28:38.968Z,21.10
2023-04-14T04:31:09.822Z,21.70
2023-04-14T04:33:37.997Z,20.50
2023-04-14T04:36:06.437Z,21.90
2023-04-14T04:38:38.992Z,21.90
2023-04-14T04:41:07.067Z,20.60
2023-04-14T04:43:34.734Z,20.70
2023-04-14T04:46:14.020Z,21.20
2023-04-14T04:48:41.764Z,20.20
2023-04-14T04:51:09.499Z,20.70
2023-04-14T04:53:37.123Z,21.20
2023-04-14T04:56:05.899Z,20.80
2023-04-14T04:58:33.551Z,20.60
2023-04-14T05:01:11.159Z,20.50
2023-04-14T05:03:39.280Z,19.30
2023-04-14T05:06:06.975Z,19.80
2023-04-14T05:08:34.627Z,19.90
2023-04-14T05:11:02.304Z,19.80
2023-04-14T05:13:30.001Z,18.90
2023-04-14T05:16:04.830Z,19.90
2023-04-14T05:18:33.205Z,19.30
2023-04-14T05:21:14.456Z,19.70
2023-04-14T05:23:44.018Z,19.20
2023-04-14T05:28:43.858Z,19.80
2023-04-14T05:31:11.616Z,19.90
2023-04-14T05:33:40.168Z,19.70
2023-04-14T05:36:08.198Z,19.70
2023-04-14T05:38:41.751Z,20.20
2023-04-14T05:41:09.615Z,21.00
2023-04-14T05:43:37.506Z,19.60
2023-04-14T05:46:05.778Z,18.70
2023-04-14T05:48:33.822Z,17.80
2023-04-14T05:51:01.805Z,18.10
2023-04-14T05:53:29.487Z,19.60
2023-04-14T05:55:57.250Z,18.50
2023-04-14T05:58:26.740Z,18.40
2023-04-14T06:00:54.623Z,17.80
2023-04-14T06:03:22.458Z,18.90
2023-04-14T06:05:50.861Z,17.10
2023-04-14T06:08:19.073Z,18.00
2023-04-14T06:10:46.823Z,18.90
2023-04-14T06:13:16.249Z,17.30
2023-04-14T06:15:59.044Z,17.70
2023-04-14T06:18:26.657Z,18.90
2023-04-14T06:20:54.238Z,18.30
2023-04-14T06:23:21.975Z,17.90
2023-04-14T06:25:49.746Z,17.60
2023-04-14T06:28:17.361Z,18.20
2023-04-14T06:30:44.981Z,18.50
2023-04-14T06:33:12.690Z,19.10
2023-04-14T06:35:40.395Z,18.90
2023-04-14T06:38:08.017Z,19.60
2023-04-14T06:40:35.656Z,17.80
2023-04-14T06:43:03.300Z,17.30
2023-04-14T06:45:30.884Z,16.50
2023-04-14T06:47:59.643Z,16.00
2023-04-14T06:50:27.282Z,16.30
2023-04-14T06:52:54.932Z,15.00
2023-04-14T06:55:22.606Z,15.70
2023-04-14T06:57:50.233Z,16.00
2023-04-14T07:00:18.137Z,16.40
2023-04-14T07:02:46.144Z,15.50
2023-04-14T07:05:14.584Z,15.60
2023-04-14T07:07:42.197Z,15.30
2023-04-14T07:10:10.143Z,14.60
2023-04-14T07:12:38.121Z,14.00
2023-04-14T07:15:06.759Z,14.70
2023-04-14T07:17:36.674Z,13.70
2023-04-14T07:20:05.417Z,13.80
2023-04-14T07:22:33.359Z,13.50
2023-04-14T07:25:01.060Z,13.60
2023-04-14T07:27:28.820Z,12.40
2023-04-14T07:29:56.797Z,12.40
2023-04-14T07:32:24.513Z,11.90
2023-04-14T07:34:52.405Z,12.60
2023-04-14T07:37:20.801Z,13.40
2023-04-14T07:39:48.504Z,12.60
2023-04-14T07:42:16.074Z,12.60
2023-04-14T07:44:43.799Z,11.30
2023-04-14T07:47:11.852Z,10.30
2023-04-14T07:49:39.476Z,10.60
2023-04-14T07:52:07.179Z,9.20
2023-04-14T07:54:35.097Z,10.50
2023-04-14T07:57:02.887Z,11.10
2023-04-14T07:59:31.852Z,10.80
2023-04-14T08:01:59.643Z,11.10
2023-04-14T08:04:27.348Z,10.70
2023-04-14T08:06:55.004Z,11.50
2023-04-14T08:09:22.610Z,10.80
2023-04-14T08:11:50.216Z,10.30
2023-04-14T08:14:17.872Z,11.10
2023-04-14T08:16:45.665Z,9.40
2023-04-14T08:19:13.399Z,9.70
2023-04-14T08:21:41.299Z,10.10
2023-04-14T08:24:08.913Z,9.80
2023-04-14T08:26:36.538Z,9.90
2023-04-14T08:29:04.275Z,10.60
2023-04-14T08:31:33.209Z,8.90
2023-04-14T08:34:00.964Z,9.20
2023-04-14T08:36:28.629Z,9.90
2023-04-14T08:38:59.309Z,10.10
2023-04-14T08:41:28.546Z,10.40
2023-04-14T08:43:57.311Z,10.00
2023-04-14T08:46:27.286Z,10.00
2023-04-14T08:48:59.756Z,11.00
2023-04-14T08:51:32.319Z,9.80
2023-04-14T08:54:01.445Z,11.30
2023-04-14T08:56:42.704Z,10.50
2023-04-14T08:59:11.538Z,11.40
2023-04-14T09:01:39.633Z,12.00
2023-04-14T09:04:08.413Z,10.70
2023-04-14T09:06:36.624Z,12.40
2023-04-14T09:09:08.769Z,10.50
2023-04-14T09:11:37.687Z,10.90
2023-04-14T09:14:06.145Z,10.10
2023-04-14T09:16:33.851Z,11.70
2023-04-14T09:19:03.665Z,10.20
2023-04-14T09:21:52.450Z,10.50
2023-04-14T09:24:31.794Z,9.40
2023-04-14T09:27:07.773Z,9.80
2023-04-14T09:29:37.430Z,9.70
2023-04-14T09:32:06.180Z,10.00
2023-04-14T09:34:33.839Z,13.20
2023-04-14T09:37:06.927Z,11.10
2023-04-14T09:39:35.759Z,10.00
2023-04-14T09:42:04.335Z,10.40
2023-04-14T09:44:31.998Z,9.90
2023-04-14T09:47:05.561Z,14.60
2023-04-14T09:49:34.131Z,10.30
2023-04-14T09:52:08.252Z,10.10
2023-04-14T09:54:36.210Z,11.50
2023-04-14T09:57:04.240Z,11.20
2023-04-14T09:59:37.706Z,10.40
2023-04-14T10:02:08.037Z,9.70
2023-04-14T10:04:37.398Z,11.80
2023-04-14T10:07:12.195Z,10.00
2023-04-14T10:09:40.715Z,11.80
2023-04-14T10:12:14.396Z,11.70
2023-04-14T10:14:43.528Z,11.80
2023-04-14T10:17:11.751Z,9.40
2023-04-14T10:19:39.821Z,10.50
2023-04-14T10:22:07.463Z,11.20
2023-04-14T10:24:36.060Z,10.70
2023-04-14T10:27:05.009Z,10.60
2023-04-14T10:29:32.736Z,11.00
2023-04-14T10:32:05.541Z,10.30
2023-04-14T10:34:34.416Z,9.60
2023-04-14T10:37:13.126Z,8.70
2023-04-14T10:39:41.155Z,10.30
2023-04-14T10:42:09.061Z,9.50
2023-04-14T10:44:36.782Z,9.90
2023-04-14T10:47:07.579Z,11.40
2023-04-14T10:49:40.652Z,10.50
2023-04-14T10:52:14.462Z,7.90
2023-04-14T10:54:54.115Z,8.50
2023-04-14T10:57:25.693Z,8.50
2023-04-14T10:59:55.101Z,9.90
2023-04-14T11:02:26.603Z,10.10
2023-04-14T11:05:11.774Z,10.30
2023-04-14T11:07:47.353Z,10.70
2023-04-14T11:10:24.264Z,11.50
2023-04-14T11:12:56.490Z,11.60
2023-04-14T11:15:24.311Z,10.80
2023-04-14T11:17:52.243Z,10.50
2023-04-14T11:20:22.036Z,10.80
2023-04-14T11:22:51.068Z,10.00
2023-04-14T11:25:23.043Z,10.10
2023-04-14T11:27:52.475Z,10.60
2023-04-14T11:30:21.504Z,10.40
2023-04-14T11:32:54.017Z,11.70
2023-04-14T11:35:24.465Z,11.10
2023-04-14T11:37:56.278Z,9.80
2023-04-14T11:40:26.511Z,10.50
2023-04-14T11:42:56.306Z,10.70
2023-04-14T11:45:27.819Z,10.10
2023-04-14T11:47:59.960Z,10.30
2023-04-14T11:50:30.207Z,9.70
2023-04-14T11:52:59.741Z,9.60
2023-04-14T11:55:28.072Z,9.00
2023-04-14T11:57:57.261Z,9.60
2023-04-14T12:00:25.352Z,9.20
2023-04-14T12:02:53.327Z,9.40
2023-04-14T12:05:25.397Z,9.20
2023-04-14T12:07:59.173Z,8.50
2023-04-14T12:10:28.793Z,8.40
2023-04-14T12:13:04.668Z,7.50
2023-04-14T12:15:37.274Z,8.80
2023-04-14T12:18:09.610Z,8.40
2023-04-14T12:21:04.159Z,8.60
2023-04-14T12:23:36.332Z,8.60
2023-04-14T12:26:09.565Z,8.40
2023-04-14T12:28:39.341Z,10.70
2023-04-14T12:31:08.176Z,9.10
2023-04-14T12:33:35.985Z,9.90
2023-04-14T12:36:06.005Z,9.20
2023-04-14T12:38:34.352Z,9.10
2023-04-14T12:41:02.228Z,10.00
2023-04-14T12:43:34.793Z,9.00
2023-04-14T12:46:03.867Z,8.60
2023-04-14T12:48:46.993Z,8.80
2023-04-14T12:51:16.727Z,8.70
2023-04-14T12:53:46.806Z,8.90
2023-04-14T12:56:16.164Z,8.80
2023-04-14T12:58:46.901Z,9.50
2023-04-14T13:01:19.966Z,9.80
2023-04-14T13:03:55.587Z,9.60
2023-04-14T13:06:24.820Z,9.40
2023-04-14T13:08:53.918Z,9.30
2023-04-14T13:11:23.529Z,9.90
2023-04-14T13:13:52.408Z,9.30
2023-04-14T13:16:21.229Z,8.90
2023-04-14T13:18:49.277Z,8.90
2023-04-14T13:21:17.058Z,8.80
2023-04-14T13:23:45.022Z,9.70
2023-04-14T13:26:12.782Z,10.60
2023-04-14T13:28:40.447Z,10.20
2023-04-14T13:31:08.251Z,10.60
2023-04-14T13:33:35.901Z,10.20
2023-04-14T13:36:03.783Z,9.20
2023-04-14T13:38:31.702Z,9.30
2023-04-14T13:40:59.449Z,10.50
2023-04-14T13:43:27.108Z,10.40
2023-04-14T13:45:58.648Z,10.20
2023-04-14T13:48:27.269Z,9.80
2023-04-14T13:50:55.830Z,9.50
2023-04-14T13:53:23.784Z,10.00
2023-04-14T13:55:51.427Z,10.10
2023-04-14T13:58:19.137Z,10.30
2023-04-14T14:00:46.737Z,9.60
2023-04-14T14:03:14.478Z,10.00
2023-04-14T14:05:42.215Z,10.40
2023-04-14T14:08:09.816Z,9.60
2023-04-14T14:10:37.414Z,10.50
2023-04-14T14:13:05.069Z,10.40
2023-04-14T14:15:32.854Z,10.30
2023-04-14T14:18:00.727Z,11.10
2023-04-14T14:20:28.373Z,10.30
2023-04-14T14:22:56.435Z,10.40
2023-04-14T14:25:24.529Z,10.40
2023-04-14T14:27:52.206Z,10.50
2023-04-14T14:30:19.808Z,10.20
2023-04-14T14:32:47.588Z,9.80
2023-04-14T14:35:16.547Z,9.90
2023-04-14T14:37:45.708Z,9.40
2023-04-14T14:40:13.416Z,9.40
2023-04-14T14:42:41.101Z,9.30
2023-04-14T14:45:09.455Z,9.40
2023-04-14T14:47:37.526Z,9.30
2023-04-14T14:50:08.420Z,9.70
2023-04-14T14:52:36.612Z,9.30
2023-04-14T14:55:04.904Z,9.30
2023-04-14T14:57:32.560Z,9.90
2023-04-14T15:00:00.183Z,9.50
2023-04-14T15:02:28.077Z,9.10
2023-04-14T15:04:56.396Z,9.00
2023-04-14T15:07:24.058Z,8.90
2023-04-14T15:09:51.726Z,8.90
2023-04-14T15:12:19.401Z,9.20
2023-04-14T15:14:47.271Z,8.40
2023-04-14T15:17:14.906Z,8.60
2023-04-14T15:19:43.111Z,7.90
2023-04-14T15:22:10.851Z,7.60
2023-04-14T15:24:38.505Z,7.10
2023-04-14T15:27:06.112Z,7.20
2023-04-14T15:29:33.802Z,7.90
2023-04-14T15:32:01.527Z,6.80
2023-04-14T15:34:29.332Z,6.70
2023-04-14T15:36:57.065Z,6.50
2023-04-14T15:39:24.673Z,6.20
2023-04-14T15:41:52.436Z,6.00
2023-04-14T15:44:20.195Z,7.30
2023-04-14T15:46:47.931Z,6.10
2023-04-14T15:49:15.942Z,5.20
2023-04-14T15:51:43.590Z,5.60
2023-04-14T15:54:11.871Z,5.60
2023-04-14T15:56:39.753Z,5.90
2023-04-14T15:59:07.410Z,5.60
2023-04-14T16:01:35.505Z,5.50
2023-04-14T16:04:03.561Z,4.80
2023-04-14T16:06:31.627Z,5.20
2023-04-14T16:08:59.331Z,5.70
2023-04-14T16:11:27.019Z,4.90
2023-04-14T16:13:54.702Z,4.90
2023-04-14T16:16:22.862Z,4.50
2023-04-14T16:18:50.592Z,4.70
2023-04-14T16:21:18.365Z,4.70
2023-04-14T16:23:45.988Z,4.40
2023-04-14T16:26:13.631Z,4.80
2023-04-14T16:28:41.375Z,4.70
2023-04-14T16:31:09.201Z,4.70
2023-04-14T16:33:37.821Z,4.90
2023-04-14T16:36:08.891Z,5.00
2023-04-14T16:38:36.786Z,5.00
2023-04-14T16:41:04.463Z,5.20
2023-04-14T16:43:32.783Z,5.50
2023-04-14T16:46:05.266Z,5.10
2023-04-14T16:48:33.465Z,5.10
2023-04-14T16:51:08.627Z,5.50
2023-04-14T16:53:40.173Z,5.60
2023-04-14T16:56:08.974Z,5.10
2023-04-14T16:58:38.083Z,5.20
2023-04-14T17:01:06.892Z,5.60
2023-04-14T17:03:35.688Z,6.80
2023-04-14T17:06:03.955Z,5.90
2023-04-14T17:08:31.795Z,5.90
2023-04-14T17:10:59.509Z,5.80
2023-04-14T17:13:27.993Z,5.90
2023-04-14T17:16:06.182Z,5.90
2023-04-14T17:18:36.521Z,6.20
2023-04-14T17:21:06.119Z,6.40
2023-04-14T17:23:37.578Z,6.10
2023-04-14T17:26:05.873Z,6.20
2023-04-14T17:28:35.019Z,6.10
2023-04-14T17:31:05.009Z,6.40
2023-04-14T17:33:32.849Z,6.30
2023-04-14T17:36:01.030Z,6.30
2023-04-14T17:38:28.678Z,6.40
2023-04-14T17:40:56.664Z,6.40
2023-04-14T17:43:24.535Z,6.60
2023-04-14T17:45:52.456Z,5.90
2023-04-14T17:48:20.810Z,5.70
2023-04-14T17:50:48.757Z,5.60
2023-04-14T17:53:17.041Z,5.90
2023-04-14T17:55:44.912Z,5.70
2023-04-14T17:58:12.539Z,6.20
2023-04-14T18:00:40.238Z,6.50
2023-04-14T18:03:08.104Z,5.90
2023-04-14T18:05:35.826Z,6.30
2023-04-14T18:08:04.046Z,6.30
2023-04-14T18:10:32.027Z,7.90
2023-04-14T18:12:59.651Z,10.00
2023-04-14T18:15:27.350Z,6.90
2023-04-14T18:17:55.703Z,7.00
2023-04-14T18:20:26.592Z,7.10
2023-04-14T18:22:54.656Z,6.70
2023-04-14T18:25:22.299Z,7.30
2023-04-14T18:30:22.186Z,7.10
2023-04-14T18:32:50.151Z,6.70
2023-04-14T18:35:19.544Z,7.50
2023-04-14T18:37:47.627Z,7.20
2023-04-14T18:40:15.868Z,7.10
2023-04-14T18:42:43.621Z,6.70
2023-04-14T18:45:12.052Z,6.60
2023-04-14T18:47:40.217Z,6.70
2023-04-14T18:50:09.226Z,6.80
2023-04-14T18:52:36.863Z,6.50
2023-04-14T18:55:05.091Z,7.10
2023-04-14T18:57:33.167Z,6.10
2023-04-14T19:00:01.065Z,7.00
2023-04-14T19:02:28.958Z,6.40
2023-04-14T19:04:57.285Z,7.00
2023-04-14T19:07:25.058Z,6.80
2023-04-14T19:09:53.027Z,7.10
2023-04-14T19:12:28.069Z,7.30
2023-04-14T19:14:56.643Z,6.70
2023-04-14T19:17:24.985Z,7.30
2023-04-14T19:19:52.704Z,7.00
2023-04-14T19:22:20.881Z,7.20
2023-04-14T19:24:49.996Z,6.50
2023-04-14T19:27:18.748Z,7.00
2023-04-14T19:29:46.586Z,7.00
2023-04-14T19:32:14.588Z,6.80
2023-04-14T19:34:42.667Z,6.60
2023-04-14T19:37:11.316Z,7.30
2023-04-14T19:39:39.020Z,6.80
2023-04-14T19:42:06.664Z,7.20
2023-04-14T19:44:35.385Z,7.30
2023-04-14T19:47:03.385Z,7.60
2023-04-14T19:49:31.201Z,7.80
2023-04-14T19:51:59.716Z,7.40
2023-04-14T19:54:27.740Z,7.30
2023-04-14T19:56:55.795Z,7.70
2023-04-14T19:59:23.404Z,7.70
2023-04-14T20:01:51.563Z,7.40
2023-04-14T20:04:20.692Z,7.40
2023-04-14T20:06:48.542Z,7.40
2023-04-14T20:09:16.209Z,7.00
2023-04-14T20:11:43.833Z,7.40
2023-04-14T20:14:11.750Z,7.90
2023-04-14T20:16:39.416Z,7.10
2023-04-14T20:19:07.046Z,7.30
2023-04-14T20:21:35.016Z,7.70
2023-04-14T20:24:03.148Z,7.40
2023-04-14T20:26:30.740Z,7.20
2023-04-14T20:28:58.495Z,7.90
2023-04-14T20:31:26.244Z,8.30
2023-04-14T20:33:53.957Z,7.50
2023-04-14T20:36:22.104Z,8.20
2023-04-14T20:38:49.691Z,7.60
2023-04-14T20:41:17.412Z,7.90
2023-04-14T20:43:45.024Z,8.40
2023-04-14T20:46:12.669Z,8.20
2023-04-14T20:48:40.317Z,7.30
2023-04-14T20:51:08.520Z,7.70
2023-04-14T20:53:36.898Z,7.90
2023-04-14T20:56:04.776Z,7.20
2023-04-14T20:58:32.459Z,8.30
2023-04-14T21:01:02.152Z,7.30
2023-04-14T21:03:31.332Z,7.20
2023-04-14T21:05:59.522Z,7.60
2023-04-14T21:08:28.624Z,7.50
2023-04-14T21:11:15.895Z,7.50
2023-04-14T21:15:27.062Z,8.10
2023-04-14T21:16:34.101Z,7.60
2023-04-14T21:19:02.629Z,8.00
2023-04-14T21:21:31.866Z,7.40
2023-04-14T21:23:59.786Z,7.50
2023-04-14T21:26:28.447Z,8.40
2023-04-14T21:28:56.649Z,7.80
2023-04-14T21:31:24.289Z,7.80
2023-04-14T21:33:51.921Z,7.90
2023-04-14T21:38:48.014Z,7.80
2023-04-14T21:41:15.975Z,8.30
2023-04-14T21:43:43.687Z,8.30
2023-04-14T21:46:11.336Z,7.80
2023-04-14T21:48:39.116Z,7.70
2023-04-14T21:51:07.676Z,8.10
2023-04-14T21:53:35.720Z,8.30
2023-04-14T21:56:09.005Z,7.50
2023-04-14T21:58:42.006Z,8.20
2023-04-14T22:01:10.374Z,8.00
2023-04-14T22:03:40.674Z,8.00
2023-04-14T22:06:10.037Z,7.50
2023-04-14T22:08:39.014Z,7.60
2023-04-14T22:11:07.186Z,8.80
2023-04-14T22:13:34.822Z,7.70
2023-04-14T22:16:03.695Z,7.80
2023-04-14T22:18:31.906Z,7.90
2023-04-14T22:20:59.567Z,7.90
2023-04-14T22:23:27.599Z,8.30
2023-04-14T22:25:55.249Z,8.90
2023-04-14T22:28:22.877Z,8.60
2023-04-14T22:30:50.719Z,8.50
2023-04-14T22:33:18.438Z,8.10
2023-04-14T22:35:46.691Z,8.40
2023-04-14T22:38:14.267Z,8.50
2023-04-14T22:40:42.422Z,8.10
2023-04-14T22:43:10.773Z,8.30
2023-04-14T22:45:38.793Z,8.70
2023-04-14T22:48:08.849Z,8.70
2023-04-14T22:50:36.946Z,8.40
2023-04-14T22:53:05.722Z,8.40
2023-04-14T22:55:33.478Z,8.20
2023-04-14T22:58:01.160Z,8.50
2023-04-14T23:00:28.751Z,8.10
2023-04-14T23:02:59.273Z,8.10
2023-04-14T23:05:27.254Z,8.50
2023-04-14T23:07:54.832Z,9.10
2023-04-14T23:10:22.532Z,8.80
2023-04-14T23:12:50.184Z,8.00
2023-04-14T23:15:18.835Z,9.00
2023-04-14T23:17:46.473Z,8.30
2023-04-14T23:20:14.191Z,8.50
2023-04-14T23:22:41.796Z,8.40
2023-04-14T23:25:09.577Z,8.80
2023-04-14T23:27:37.237Z,8.60
2023-04-14T23:30:05.980Z,8.70
2023-04-14T23:32:33.677Z,8.60
2023-04-14T23:35:01.701Z,8.80
2023-04-14T23:37:29.341Z,8.30
2023-04-14T23:39:57.431Z,8.60
2023-04-14T23:42:25.137Z,8.00
2023-04-14T23:44:54.343Z,8.50
2023-04-14T23:47:22.291Z,8.90
2023-04-14T23:49:49.989Z,8.80
2023-04-14T23:52:17.997Z,9.30
2023-04-14T23:54:45.794Z,9.10
2023-04-14T23:57:13.434Z,9.10
2023-04-14T23:59:41.289Z,9.20
